createdAt,value
2023-12-18T00:00:45.809Z,608.00
2023-12-18T00:01:45.755Z,612.00
2023-12-18T00:02:45.759Z,605.00
2023-12-18T00:03:45.877Z,606.00
2023-12-18T00:04:45.785Z,608.00
2023-12-18T00:05:45.789Z,606.00
2023-12-18T00:06:45.798Z,605.00
2023-12-18T00:07:45.771Z,606.00
2023-12-18T00:08:45.794Z,606.00
2023-12-18T00:09:45.781Z,608.00
2023-12-18T00:10:45.763Z,605.00
2023-12-18T00:11:45.800Z,605.00
2023-12-18T00:12:45.921Z,606.00
2023-12-18T00:13:45.947Z,607.00
2023-12-18T00:14:46.014Z,607.00
2023-12-18T00:15:46.123Z,606.00
2023-12-18T00:16:46.130Z,609.00
2023-12-18T00:17:46.483Z,607.00
2023-12-18T00:18:46.365Z,606.00
2023-12-18T00:19:46.376Z,608.00
2023-12-18T00:20:46.401Z,606.00
2023-12-18T00:21:46.495Z,608.00
2023-12-18T00:22:46.541Z,604.00
2023-12-18T00:23:46.634Z,606.00
2023-12-18T00:24:46.673Z,604.00
2023-12-18T00:25:46.744Z,609.00
2023-12-18T00:26:46.813Z,605.00
2023-12-18T00:27:47.821Z,609.00
2023-12-18T00:28:46.953Z,610.00
2023-12-18T00:29:47.055Z,606.00
2023-12-18T00:30:47.143Z,606.00
2023-12-18T00:31:47.146Z,607.00
2023-12-18T00:32:47.242Z,610.00
2023-12-18T00:33:47.401Z,604.00
2023-12-18T00:34:47.425Z,606.00
2023-12-18T00:35:47.438Z,609.00
2023-12-18T00:36:47.480Z,604.00
2023-12-18T00:37:47.549Z,607.00
2023-12-18T00:38:47.639Z,608.00
2023-12-18T00:39:47.702Z,609.00
2023-12-18T00:40:47.771Z,606.00
2023-12-18T00:41:47.828Z,604.00
2023-12-18T00:42:47.905Z,610.00
2023-12-18T00:43:49.012Z,609.00
2023-12-18T00:44:48.071Z,607.00
2023-12-18T00:45:48.157Z,605.00
2023-12-18T00:46:48.219Z,607.00
2023-12-18T00:47:48.343Z,603.00
2023-12-18T00:48:48.448Z,606.00
2023-12-18T00:49:48.602Z,609.00
2023-12-18T00:50:48.532Z,606.00
2023-12-18T00:51:48.565Z,610.00
2023-12-18T00:52:48.632Z,607.00
2023-12-18T00:53:48.709Z,604.00
2023-12-18T00:54:48.818Z,610.00
2023-12-18T00:55:48.860Z,607.00
2023-12-18T00:56:48.933Z,608.00
2023-12-18T00:57:53.452Z,610.00
2023-12-18T00:58:49.983Z,607.00
2023-12-18T00:59:48.979Z,606.00
2023-12-18T01:00:49.189Z,610.00
2023-12-18T01:01:49.005Z,606.00
2023-12-18T01:02:48.988Z,613.00
2023-12-18T01:03:49.157Z,608.00
2023-12-18T01:04:49.075Z,610.00
2023-12-18T01:05:48.995Z,610.00
2023-12-18T01:06:49.051Z,610.00
2023-12-18T01:07:49.100Z,606.00
2023-12-18T01:08:49.145Z,602.00
2023-12-18T01:09:49.212Z,608.00
2023-12-18T01:10:49.248Z,603.00
2023-12-18T01:11:49.317Z,602.00
2023-12-18T01:12:49.396Z,608.00
2023-12-18T01:13:49.441Z,607.00
2023-12-18T01:14:49.481Z,605.00
2023-12-18T01:15:49.633Z,609.00
2023-12-18T01:16:49.672Z,604.00
2023-12-18T01:17:49.973Z,605.00
2023-12-18T01:18:49.935Z,609.00
2023-12-18T01:19:49.969Z,605.00
2023-12-18T01:20:49.959Z,606.00
2023-12-18T01:21:50.021Z,604.00
2023-12-18T01:23:01.550Z,603.00
2023-12-18T01:23:51.084Z,603.00
2023-12-18T01:24:50.058Z,603.00
2023-12-18T01:25:50.076Z,604.00
2023-12-18T01:26:50.062Z,605.00
2023-12-18T01:27:50.105Z,611.00
2023-12-18T01:28:50.865Z,606.00
2023-12-18T01:29:50.063Z,606.00
2023-12-18T01:30:50.211Z,612.00
2023-12-18T01:31:50.186Z,605.00
2023-12-18T01:33:50.370Z,608.00
2023-12-18T01:34:50.422Z,605.00
2023-12-18T01:35:50.474Z,609.00
2023-12-18T01:36:50.542Z,609.00
2023-12-18T01:37:50.610Z,604.00
2023-12-18T01:38:50.684Z,607.00
2023-12-18T01:39:50.763Z,603.00
2023-12-18T01:40:50.888Z,604.00
2023-12-18T01:41:50.906Z,608.00
2023-12-18T01:42:50.968Z,604.00
2023-12-18T01:43:51.031Z,605.00
2023-12-18T01:44:51.109Z,607.00
2023-12-18T01:45:51.170Z,603.00
2023-12-18T01:46:51.202Z,607.00
2023-12-18T01:47:51.353Z,602.00
2023-12-18T01:48:51.503Z,607.00
2023-12-18T01:49:51.457Z,602.00
2023-12-18T01:50:51.464Z,608.00
2023-12-18T01:51:51.546Z,603.00
2023-12-18T01:52:51.563Z,604.00
2023-12-18T01:53:51.564Z,604.00
2023-12-18T01:54:51.559Z,607.00
2023-12-18T01:55:51.581Z,607.00
2023-12-18T01:56:51.607Z,608.00
2023-12-18T01:57:51.755Z,604.00
2023-12-18T01:58:51.832Z,602.00
2023-12-18T01:59:51.921Z,605.00
2023-12-18T02:00:52.003Z,605.00
2023-12-18T02:01:51.933Z,606.00
2023-12-18T02:02:52.017Z,607.00
2023-12-18T02:03:52.144Z,604.00
2023-12-18T02:04:52.062Z,606.00
2023-12-18T02:05:52.057Z,602.00
2023-12-18T02:06:52.181Z,606.00
2023-12-18T02:07:52.205Z,607.00
2023-12-18T02:08:52.213Z,605.00
2023-12-18T02:09:52.277Z,606.00
2023-12-18T02:10:52.322Z,608.00
2023-12-18T02:11:52.336Z,606.00
2023-12-18T02:12:52.375Z,607.00
2023-12-18T02:13:52.432Z,609.00
2023-12-18T02:14:52.455Z,603.00
2023-12-18T02:15:52.547Z,606.00
2023-12-18T02:16:52.556Z,605.00
2023-12-18T02:17:52.594Z,608.00
2023-12-18T02:18:52.639Z,605.00
2023-12-18T02:19:52.597Z,605.00
2023-12-18T02:20:52.626Z,604.00
2023-12-18T02:21:52.659Z,606.00
2023-12-18T02:22:52.751Z,609.00
2023-12-18T02:23:52.839Z,607.00
2023-12-18T02:24:52.872Z,605.00
2023-12-18T02:25:52.881Z,606.00
2023-12-18T02:26:52.897Z,607.00
2023-12-18T02:27:52.927Z,603.00
2023-12-18T02:28:52.937Z,605.00
2023-12-18T02:29:52.957Z,608.00
2023-12-18T02:30:53.114Z,608.00
2023-12-18T02:31:53.042Z,608.00
2023-12-18T02:32:53.170Z,608.00
2023-12-18T02:33:53.346Z,607.00
2023-12-18T02:34:53.421Z,608.00
2023-12-18T02:35:53.417Z,607.00
2023-12-18T02:36:53.500Z,604.00
2023-12-18T02:37:53.475Z,606.00
2023-12-18T02:38:53.501Z,607.00
2023-12-18T02:39:53.542Z,607.00
2023-12-18T02:40:53.560Z,608.00
2023-12-18T02:41:53.603Z,607.00
2023-12-18T02:42:53.754Z,605.00
2023-12-18T02:43:53.730Z,605.00
2023-12-18T02:44:53.817Z,604.00
2023-12-18T02:45:53.911Z,606.00
2023-12-18T02:46:54.016Z,606.00
2023-12-18T02:47:54.050Z,608.00
2023-12-18T02:48:54.088Z,610.00
2023-12-18T02:49:54.065Z,609.00
2023-12-18T02:50:54.090Z,605.00
2023-12-18T02:51:54.113Z,602.00
2023-12-18T02:52:54.142Z,607.00
2023-12-18T02:53:54.225Z,606.00
2023-12-18T02:54:54.326Z,608.00
2023-12-18T02:55:54.340Z,605.00
2023-12-18T02:56:54.348Z,609.00
2023-12-18T02:57:54.364Z,604.00
2023-12-18T02:58:54.409Z,601.00
2023-12-18T02:59:54.457Z,607.00
2023-12-18T03:00:54.541Z,608.00
2023-12-18T03:01:54.534Z,608.00
2023-12-18T03:02:54.612Z,606.00
2023-12-18T03:03:54.660Z,606.00
2023-12-18T03:04:54.709Z,609.00
2023-12-18T03:05:54.684Z,609.00
2023-12-18T03:06:54.709Z,608.00
2023-12-18T03:07:54.745Z,606.00
2023-12-18T03:08:54.781Z,607.00
2023-12-18T03:09:54.810Z,608.00
2023-12-18T03:10:54.893Z,609.00
2023-12-18T03:11:54.958Z,606.00
2023-12-18T03:12:55.074Z,607.00
2023-12-18T03:13:55.165Z,606.00
2023-12-18T03:14:55.176Z,609.00
2023-12-18T03:15:55.216Z,606.00
2023-12-18T03:16:55.222Z,604.00
2023-12-18T03:17:55.337Z,606.00
2023-12-18T03:18:55.378Z,603.00
2023-12-18T03:19:55.289Z,610.00
2023-12-18T03:20:55.334Z,603.00
2023-12-18T03:21:55.364Z,609.00
2023-12-18T03:22:55.385Z,607.00
2023-12-18T03:23:55.415Z,606.00
2023-12-18T03:24:55.468Z,606.00
2023-12-18T03:25:55.421Z,606.00
2023-12-18T03:26:55.461Z,606.00
2023-12-18T03:27:55.553Z,607.00
2023-12-18T03:28:55.594Z,604.00
2023-12-18T03:29:55.617Z,606.00
2023-12-18T03:30:56.054Z,604.00
2023-12-18T03:31:55.728Z,603.00
2023-12-18T03:32:55.845Z,607.00
2023-12-18T03:33:56.023Z,607.00
2023-12-18T03:34:55.941Z,605.00
2023-12-18T03:35:55.957Z,606.00
2023-12-18T03:36:55.962Z,606.00
2023-12-18T03:37:55.962Z,608.00
2023-12-18T03:38:55.980Z,606.00
2023-12-18T03:39:56.051Z,606.00
2023-12-18T03:40:56.035Z,605.00
2023-12-18T03:41:56.073Z,605.00
2023-12-18T03:42:56.053Z,604.00
2023-12-18T03:43:56.064Z,604.00
2023-12-18T03:44:56.065Z,606.00
2023-12-18T03:45:56.139Z,606.00
2023-12-18T03:46:56.141Z,605.00
2023-12-18T03:47:56.191Z,605.00
2023-12-18T03:48:56.183Z,604.00
2023-12-18T03:49:56.234Z,603.00
2023-12-18T03:50:56.156Z,606.00
2023-12-18T03:51:56.283Z,604.00
2023-12-18T03:52:56.249Z,603.00
2023-12-18T03:53:56.258Z,607.00
2023-12-18T03:54:56.264Z,607.00
2023-12-18T03:55:56.280Z,605.00
2023-12-18T03:56:56.277Z,605.00
2023-12-18T03:57:56.436Z,606.00
2023-12-18T03:58:56.353Z,603.00
2023-12-18T03:59:56.369Z,608.00
2023-12-18T04:00:56.493Z,604.00
2023-12-18T04:01:56.371Z,607.00
2023-12-18T04:02:56.381Z,604.00
2023-12-18T04:03:56.529Z,608.00
2023-12-18T04:04:56.613Z,604.00
2023-12-18T04:05:56.574Z,602.00
2023-12-18T04:06:56.558Z,605.00
2023-12-18T04:07:56.573Z,602.00
2023-12-18T04:08:56.600Z,607.00
2023-12-18T04:09:56.624Z,608.00
2023-12-18T04:10:56.686Z,605.00
2023-12-18T04:11:56.795Z,610.00
2023-12-18T04:12:56.883Z,608.00
2023-12-18T04:13:56.893Z,603.00
2023-12-18T04:14:56.906Z,606.00
2023-12-18T04:15:59.764Z,605.00
2023-12-18T04:16:56.932Z,612.00
2023-12-18T04:17:56.974Z,607.00
2023-12-18T04:18:57.058Z,608.00
2023-12-18T04:19:56.944Z,604.00
2023-12-18T04:20:56.933Z,609.00
2023-12-18T04:21:56.924Z,606.00
2023-12-18T04:22:56.951Z,609.00
2023-12-18T04:23:56.939Z,605.00
2023-12-18T04:24:56.976Z,607.00
2023-12-18T04:25:56.936Z,607.00
2023-12-18T04:26:56.928Z,611.00
2023-12-18T04:27:57.021Z,603.00
2023-12-18T04:28:56.966Z,610.00
2023-12-18T04:29:56.950Z,606.00
2023-12-18T04:30:57.011Z,608.00
2023-12-18T04:31:56.968Z,610.00
2023-12-18T04:32:57.070Z,607.00
2023-12-18T04:33:56.987Z,614.00
2023-12-18T04:34:56.965Z,609.00
2023-12-18T04:35:56.963Z,609.00
2023-12-18T04:36:58.743Z,606.00
2023-12-18T04:37:57.131Z,609.00
2023-12-18T04:38:57.151Z,613.00
2023-12-18T04:39:57.171Z,611.00
2023-12-18T04:40:57.181Z,613.00
2023-12-18T04:41:57.236Z,608.00
2023-12-18T04:42:57.287Z,611.00
2023-12-18T04:43:57.294Z,609.00
2023-12-18T04:44:57.338Z,607.00
2023-12-18T04:45:57.354Z,611.00
2023-12-18T04:46:57.394Z,611.00
2023-12-18T04:47:57.506Z,607.00
2023-12-18T04:48:58.045Z,610.00
2023-12-18T04:49:57.987Z,610.00
2023-12-18T04:50:57.519Z,613.00
2023-12-18T04:51:57.620Z,611.00
2023-12-18T04:52:57.558Z,610.00
2023-12-18T04:54:04.930Z,600.00
2023-12-18T04:55:04.886Z,600.00
2023-12-18T04:56:04.886Z,600.00
2023-12-18T04:57:04.950Z,600.00
2023-12-18T04:58:04.910Z,600.00
2023-12-18T04:59:04.897Z,601.00
2023-12-18T05:00:04.971Z,606.00
2023-12-18T05:01:05.145Z,601.00
2023-12-18T05:02:04.893Z,600.00
2023-12-18T05:03:05.020Z,606.00
2023-12-18T05:04:05.033Z,603.00
2023-12-18T05:05:04.924Z,600.00
2023-12-18T05:06:04.976Z,604.00
2023-12-18T05:07:04.923Z,601.00
2023-12-18T05:08:04.905Z,603.00
2023-12-18T05:09:05.004Z,604.00
2023-12-18T05:10:04.920Z,605.00
2023-12-18T05:11:04.922Z,600.00
2023-12-18T05:12:04.942Z,604.00
2023-12-18T05:13:04.925Z,603.00
2023-12-18T05:14:04.934Z,603.00
2023-12-18T05:15:06.191Z,602.00
2023-12-18T05:16:04.973Z,603.00
2023-12-18T05:17:04.942Z,605.00
2023-12-18T05:18:05.079Z,607.00
2023-12-18T05:19:05.114Z,600.00
2023-12-18T05:20:05.017Z,605.00
2023-12-18T05:21:05.081Z,603.00
2023-12-18T05:22:05.122Z,605.00
2023-12-18T05:23:05.153Z,604.00
2023-12-18T05:24:05.207Z,605.00
2023-12-18T05:25:05.254Z,606.00
2023-12-18T05:26:05.297Z,606.00
2023-12-18T05:27:05.375Z,602.00
2023-12-18T05:28:05.364Z,604.00
2023-12-18T05:29:05.411Z,604.00
2023-12-18T05:30:05.687Z,604.00
2023-12-18T05:31:05.594Z,606.00
2023-12-18T05:32:05.541Z,600.00
2023-12-18T05:33:05.733Z,605.00
2023-12-18T05:34:05.775Z,608.00
2023-12-18T05:35:05.672Z,605.00
2023-12-18T05:36:05.742Z,605.00
2023-12-18T05:37:05.750Z,604.00
2023-12-18T05:38:05.792Z,606.00
2023-12-18T05:39:06.028Z,607.00
2023-12-18T05:40:05.884Z,605.00
2023-12-18T05:41:05.944Z,603.00
2023-12-18T05:42:06.830Z,606.00
2023-12-18T05:43:06.036Z,604.00
2023-12-18T05:44:06.102Z,608.00
2023-12-18T05:45:06.540Z,607.00
2023-12-18T05:46:06.209Z,604.00
2023-12-18T05:47:06.264Z,605.00
2023-12-18T05:48:06.479Z,605.00
2023-12-18T05:49:06.531Z,606.00
2023-12-18T05:50:06.520Z,606.00
2023-12-18T05:51:06.526Z,605.00
2023-12-18T05:52:06.590Z,606.00
2023-12-18T05:53:06.605Z,607.00
2023-12-18T05:54:06.681Z,605.00
2023-12-18T05:55:09.214Z,605.00
2023-12-18T05:56:06.678Z,609.00
2023-12-18T05:57:06.780Z,607.00
2023-12-18T05:58:06.692Z,607.00
2023-12-18T05:59:06.696Z,607.00
2023-12-18T06:00:06.755Z,607.00
2023-12-18T06:01:06.761Z,605.00
2023-12-18T06:02:06.687Z,605.00
2023-12-18T06:03:06.926Z,604.00
2023-12-18T06:04:06.807Z,605.00
2023-12-18T06:05:06.709Z,603.00
2023-12-18T06:06:06.767Z,604.00
2023-12-18T06:07:06.760Z,606.00
2023-12-18T06:08:06.691Z,605.00
2023-12-18T06:09:06.726Z,603.00
2023-12-18T06:10:06.711Z,603.00
2023-12-18T06:11:06.700Z,607.00
2023-12-18T06:12:06.723Z,604.00
2023-12-18T06:13:06.712Z,609.00
2023-12-18T06:14:06.705Z,603.00
2023-12-18T06:15:06.818Z,607.00
2023-12-18T06:16:06.717Z,603.00
2023-12-18T06:17:06.718Z,604.00
2023-12-18T06:18:06.885Z,602.00
2023-12-18T06:19:06.793Z,603.00
2023-12-18T06:20:06.873Z,604.00
2023-12-18T06:21:06.965Z,601.00
2023-12-18T06:22:06.772Z,602.00
2023-12-18T06:23:06.786Z,604.00
2023-12-18T06:24:06.818Z,602.00
2023-12-18T06:25:06.735Z,603.00
2023-12-18T06:26:06.732Z,607.00
2023-12-18T06:27:06.935Z,607.00
2023-12-18T06:28:06.739Z,601.00
2023-12-18T06:29:06.740Z,605.00
2023-12-18T06:30:06.801Z,607.00
2023-12-18T06:31:06.826Z,604.00
2023-12-18T06:32:06.819Z,602.00
2023-12-18T06:33:06.888Z,606.00
2023-12-18T06:34:06.923Z,608.00
2023-12-18T06:35:06.782Z,607.00
2023-12-18T06:36:06.778Z,606.00
2023-12-18T06:37:06.797Z,606.00
2023-12-18T06:38:06.841Z,606.00
2023-12-18T06:39:06.832Z,602.00
2023-12-18T06:40:07.047Z,605.00
2023-12-18T06:41:06.767Z,607.00
2023-12-18T06:42:06.811Z,602.00
2023-12-18T06:43:06.755Z,603.00
2023-12-18T06:44:06.769Z,607.00
2023-12-18T06:45:07.069Z,607.00
2023-12-18T06:46:06.766Z,609.00
2023-12-18T06:47:06.766Z,618.00
2023-12-18T06:48:07.007Z,621.00
2023-12-18T06:49:06.851Z,621.00
2023-12-18T06:50:07.040Z,624.00
2023-12-18T06:51:06.926Z,631.00
2023-12-18T06:52:06.769Z,635.00
2023-12-18T06:53:06.799Z,645.00
2023-12-18T06:54:06.823Z,647.00
2023-12-18T06:55:06.841Z,656.00
2023-12-18T06:56:06.886Z,655.00
2023-12-18T06:57:06.807Z,661.00
2023-12-18T06:58:06.849Z,675.00
2023-12-18T06:59:06.804Z,689.00
2023-12-18T07:00:07.160Z,687.00
2023-12-18T07:01:07.532Z,707.00
2023-12-18T07:02:07.149Z,718.00
2023-12-18T07:03:07.082Z,729.00
2023-12-18T07:04:07.161Z,739.00
2023-12-18T07:05:07.115Z,748.00
2023-12-18T07:06:07.630Z,768.00
2023-12-18T07:07:07.109Z,778.00
2023-12-18T07:08:07.179Z,780.00
2023-12-18T07:09:07.256Z,797.00
2023-12-18T07:10:07.361Z,808.00
2023-12-18T07:11:07.555Z,826.00
2023-12-18T07:12:07.308Z,825.00
2023-12-18T07:13:07.340Z,839.00
2023-12-18T07:14:07.328Z,850.00
2023-12-18T07:15:07.471Z,856.00
2023-12-18T07:16:07.394Z,869.00
2023-12-18T07:17:07.439Z,885.00
2023-12-18T07:18:07.691Z,886.00
2023-12-18T07:19:07.582Z,899.00
2023-12-18T07:20:07.557Z,909.00
2023-12-18T07:21:07.670Z,925.00
2023-12-18T07:22:07.577Z,923.00
2023-12-18T07:23:07.641Z,937.00
2023-12-18T07:24:07.682Z,947.00
2023-12-18T07:25:07.651Z,954.00
2023-12-18T07:26:07.660Z,967.00
2023-12-18T07:27:07.725Z,974.00
2023-12-18T07:28:07.697Z,984.00
2023-12-18T07:29:07.705Z,997.00
2023-12-18T07:30:09.668Z,1007.00
2023-12-18T07:31:07.799Z,1012.00
2023-12-18T07:32:07.785Z,1015.00
2023-12-18T07:33:08.016Z,1031.00
2023-12-18T07:34:08.106Z,1041.00
2023-12-18T07:35:08.130Z,1042.00
2023-12-18T07:36:07.989Z,1062.00
2023-12-18T07:37:08.011Z,1051.00
2023-12-18T07:38:08.036Z,974.00
2023-12-18T07:39:08.116Z,971.00
2023-12-18T07:40:08.572Z,968.00
2023-12-18T07:41:08.140Z,938.00
2023-12-18T07:42:08.208Z,901.00
2023-12-18T07:43:08.236Z,870.00
2023-12-18T07:44:08.271Z,840.00
2023-12-18T07:45:08.674Z,809.00
2023-12-18T07:46:08.399Z,789.00
2023-12-18T07:47:08.486Z,775.00
2023-12-18T07:48:08.726Z,763.00
2023-12-18T07:49:08.842Z,752.00
2023-12-18T07:50:09.092Z,747.00
2023-12-18T07:51:08.750Z,736.00
2023-12-18T07:52:08.705Z,737.00
2023-12-18T07:53:08.814Z,717.00
2023-12-18T07:54:08.747Z,706.00
2023-12-18T07:55:09.072Z,722.00
2023-12-18T07:56:08.776Z,699.00
2023-12-18T07:57:08.898Z,700.00
2023-12-18T07:58:08.783Z,696.00
2023-12-18T07:59:08.804Z,691.00
2023-12-18T08:00:08.885Z,679.00
2023-12-18T08:01:08.922Z,685.00
2023-12-18T08:02:08.934Z,674.00
2023-12-18T08:03:08.927Z,674.00
2023-12-18T08:04:08.971Z,671.00
2023-12-18T08:05:08.976Z,675.00
2023-12-18T08:06:08.938Z,673.00
2023-12-18T08:07:08.957Z,682.00
2023-12-18T08:08:08.980Z,691.00
2023-12-18T08:09:09.060Z,692.00
2023-12-18T08:10:09.096Z,699.00
2023-12-18T08:11:09.047Z,696.00
2023-12-18T08:12:09.165Z,697.00
2023-12-18T08:13:09.096Z,692.00
2023-12-18T08:14:09.099Z,694.00
2023-12-18T08:15:09.657Z,688.00
2023-12-18T08:16:09.141Z,695.00
2023-12-18T08:17:09.168Z,695.00
2023-12-18T08:18:09.337Z,695.00
2023-12-18T08:19:09.324Z,685.00
2023-12-18T08:20:09.624Z,692.00
2023-12-18T08:21:09.244Z,697.00
2023-12-18T08:22:09.256Z,694.00
2023-12-18T08:23:09.282Z,687.00
2023-12-18T08:24:09.327Z,684.00
2023-12-18T08:25:09.633Z,690.00
2023-12-18T08:26:09.477Z,701.00
2023-12-18T08:27:09.547Z,701.00
2023-12-18T08:28:09.724Z,701.00
2023-12-18T08:29:10.301Z,712.00
2023-12-18T08:30:10.339Z,706.00
2023-12-18T08:31:09.719Z,720.00
2023-12-18T08:32:09.722Z,718.00
2023-12-18T08:33:10.067Z,739.00
2023-12-18T08:34:09.858Z,733.00
2023-12-18T08:35:10.112Z,743.00
2023-12-18T08:36:09.961Z,759.00
2023-12-18T08:37:09.891Z,759.00
2023-12-18T08:38:09.940Z,770.00
2023-12-18T08:39:12.658Z,781.00
2023-12-18T08:40:10.118Z,788.00
2023-12-18T08:41:09.882Z,797.00
2023-12-18T08:42:09.929Z,800.00
2023-12-18T08:43:09.895Z,805.00
2023-12-18T08:44:09.892Z,822.00
2023-12-18T08:45:10.132Z,832.00
2023-12-18T08:46:09.902Z,830.00
2023-12-18T08:47:09.881Z,843.00
2023-12-18T08:48:10.042Z,854.00
2023-12-18T08:49:09.988Z,862.00
2023-12-18T08:50:10.099Z,879.00
2023-12-18T08:51:09.923Z,893.00
2023-12-18T08:52:09.894Z,902.00
2023-12-18T08:53:09.917Z,921.00
2023-12-18T08:54:09.950Z,937.00
2023-12-18T08:55:09.925Z,937.00
2023-12-18T08:56:09.967Z,946.00
2023-12-18T08:57:09.968Z,960.00
2023-12-18T08:58:09.964Z,958.00
2023-12-18T08:59:09.891Z,972.00
2023-12-18T09:00:09.916Z,975.00
2023-12-18T09:01:09.994Z,978.00
2023-12-18T09:02:09.908Z,988.00
2023-12-18T09:03:10.081Z,990.00
2023-12-18T09:04:09.949Z,997.00
2023-12-18T09:05:10.174Z,1002.00
2023-12-18T09:06:09.983Z,1013.00
2023-12-18T09:07:09.949Z,1005.00
2023-12-18T09:08:10.088Z,1018.00
2023-12-18T09:09:10.304Z,1026.00
2023-12-18T09:10:10.131Z,1029.00
2023-12-18T09:11:09.915Z,1027.00
2023-12-18T09:12:09.971Z,1043.00
2023-12-18T09:13:09.945Z,1050.00
2023-12-18T09:14:09.914Z,1047.00
2023-12-18T09:15:09.937Z,1041.00
2023-12-18T09:16:09.916Z,1055.00
2023-12-18T09:17:09.937Z,1052.00
2023-12-18T09:18:10.113Z,1054.00
2023-12-18T09:19:10.658Z,1064.00
2023-12-18T09:20:10.149Z,1066.00
2023-12-18T09:21:09.946Z,1070.00
2023-12-18T09:22:09.921Z,1075.00
2023-12-18T09:23:10.041Z,1078.00
2023-12-18T09:24:09.961Z,1078.00
2023-12-18T09:25:09.936Z,1088.00
2023-12-18T09:26:10.119Z,1097.00
2023-12-18T09:27:09.936Z,1112.00
2023-12-18T09:28:09.944Z,1129.00
2023-12-18T09:29:09.963Z,1138.00
2023-12-18T09:30:11.740Z,1142.00
2023-12-18T09:31:10.018Z,1150.00
2023-12-18T09:32:10.028Z,1153.00
2023-12-18T09:33:10.204Z,1159.00
2023-12-18T09:34:10.212Z,1164.00
2023-12-18T09:35:10.221Z,1160.00
2023-12-18T09:36:10.158Z,1166.00
2023-12-18T09:37:10.140Z,1152.00
2023-12-18T09:38:10.151Z,1153.00
2023-12-18T09:39:10.193Z,1150.00
2023-12-18T09:40:10.625Z,1157.00
2023-12-18T09:41:10.230Z,1152.00
2023-12-18T09:42:10.250Z,1144.00
2023-12-18T09:43:10.230Z,1144.00
2023-12-18T09:44:10.233Z,1144.00
2023-12-18T09:45:10.687Z,1136.00
2023-12-18T09:46:10.260Z,1139.00
2023-12-18T09:47:10.266Z,1132.00
2023-12-18T09:48:10.420Z,1124.00
2023-12-18T09:49:10.378Z,1121.00
2023-12-18T09:50:10.629Z,1120.00
2023-12-18T09:51:10.447Z,1115.00
2023-12-18T09:52:10.411Z,1114.00
2023-12-18T09:53:10.440Z,1115.00
2023-12-18T09:54:10.489Z,1104.00
2023-12-18T09:55:10.481Z,1103.00
2023-12-18T09:56:10.508Z,1098.00
2023-12-18T09:57:10.578Z,1108.00
2023-12-18T09:58:10.587Z,1097.00
2023-12-18T09:59:10.617Z,1100.00
2023-12-18T10:00:11.211Z,1099.00
2023-12-18T10:01:10.773Z,1095.00
2023-12-18T10:02:10.719Z,1098.00
2023-12-18T10:03:10.876Z,1096.00
2023-12-18T10:04:11.030Z,1096.00
2023-12-18T10:05:10.882Z,1099.00
2023-12-18T10:06:10.938Z,1092.00
2023-12-18T10:07:10.883Z,1092.00
2023-12-18T10:08:11.003Z,1093.00
2023-12-18T10:09:11.002Z,1091.00
2023-12-18T10:10:11.006Z,1087.00
2023-12-18T10:11:11.021Z,1083.00
2023-12-18T10:12:11.166Z,1075.00
2023-12-18T10:13:11.136Z,1089.00
2023-12-18T10:14:11.160Z,1093.00
2023-12-18T10:15:11.279Z,1085.00
2023-12-18T10:16:11.292Z,1077.00
2023-12-18T10:17:11.255Z,1085.00
2023-12-18T10:18:11.380Z,1082.00
2023-12-18T10:19:11.410Z,1090.00
2023-12-18T10:20:11.468Z,1096.00
2023-12-18T10:21:11.412Z,1132.00
2023-12-18T10:22:11.421Z,1163.00
2023-12-18T10:23:11.438Z,1168.00
2023-12-18T10:24:11.537Z,1167.00
2023-12-18T10:25:11.485Z,1161.00
2023-12-18T10:26:11.522Z,1144.00
2023-12-18T10:27:11.563Z,1131.00
2023-12-18T10:28:11.573Z,1128.00
2023-12-18T10:29:11.554Z,1113.00
2023-12-18T10:30:11.721Z,1109.00
2023-12-18T10:31:11.639Z,1095.00
2023-12-18T10:32:11.627Z,1092.00
2023-12-18T10:33:12.397Z,1086.00
2023-12-18T10:34:11.858Z,1089.00
2023-12-18T10:35:12.145Z,1068.00
2023-12-18T10:36:13.455Z,1063.00
2023-12-18T10:37:11.985Z,1043.00
2023-12-18T10:38:12.048Z,1024.00
2023-12-18T10:39:12.153Z,1027.00
2023-12-18T10:40:12.690Z,1020.00
2023-12-18T10:41:12.212Z,1009.00
2023-12-18T10:42:12.255Z,1011.00
2023-12-18T10:43:12.315Z,992.00
2023-12-18T10:44:12.350Z,1022.00
2023-12-18T10:45:13.162Z,1038.00
2023-12-18T10:46:12.390Z,991.00
2023-12-18T10:47:12.872Z,1024.00
2023-12-18T10:48:12.496Z,1006.00
2023-12-18T10:49:12.588Z,1020.00
2023-12-18T10:50:12.669Z,1013.00
2023-12-18T10:51:12.559Z,993.00
2023-12-18T10:52:12.706Z,1007.00
2023-12-18T10:53:12.617Z,992.00
2023-12-18T10:54:12.655Z,992.00
2023-12-18T10:55:12.651Z,991.00
2023-12-18T10:56:12.650Z,995.00
2023-12-18T10:57:12.768Z,996.00
2023-12-18T10:58:12.698Z,1005.00
2023-12-18T10:59:12.761Z,992.00
2023-12-18T11:00:13.178Z,996.00
2023-12-18T11:01:12.840Z,990.00
2023-12-18T11:02:12.718Z,989.00
2023-12-18T11:03:12.852Z,986.00
2023-12-18T11:04:12.830Z,983.00
2023-12-18T11:05:13.180Z,996.00
2023-12-18T11:06:12.894Z,989.00
2023-12-18T11:07:12.988Z,985.00
2023-12-18T11:08:12.841Z,994.00
2023-12-18T11:09:12.868Z,977.00
2023-12-18T11:10:13.412Z,976.00
2023-12-18T11:11:12.880Z,976.00
2023-12-18T11:12:12.944Z,974.00
2023-12-18T11:13:12.917Z,981.00
2023-12-18T11:14:13.678Z,971.00
2023-12-18T11:15:13.197Z,976.00
2023-12-18T11:16:13.051Z,975.00
2023-12-18T11:17:13.078Z,980.00
2023-12-18T11:18:13.392Z,972.00
2023-12-18T11:19:19.804Z,970.00
2023-12-18T11:20:14.249Z,971.00
2023-12-18T11:21:13.127Z,971.00
2023-12-18T11:22:13.158Z,970.00
2023-12-18T11:23:13.131Z,969.00
2023-12-18T11:24:13.139Z,964.00
2023-12-18T11:25:13.158Z,965.00
2023-12-18T11:26:13.177Z,971.00
2023-12-18T11:27:13.162Z,966.00
2023-12-18T11:28:13.153Z,960.00
2023-12-18T11:29:13.191Z,956.00
2023-12-18T11:30:13.375Z,955.00
2023-12-18T11:31:13.366Z,948.00
2023-12-18T11:32:13.368Z,943.00
2023-12-18T11:33:13.485Z,942.00
2023-12-18T11:34:13.424Z,933.00
2023-12-18T11:35:13.560Z,932.00
2023-12-18T11:36:13.579Z,931.00
2023-12-18T11:37:13.328Z,931.00
2023-12-18T11:38:13.346Z,929.00
2023-12-18T11:39:13.373Z,933.00
2023-12-18T11:40:14.197Z,928.00
2023-12-18T11:41:13.376Z,927.00
2023-12-18T11:42:13.416Z,938.00
2023-12-18T11:43:13.415Z,940.00
2023-12-18T11:44:13.429Z,934.00
2023-12-18T11:45:13.769Z,947.00
2023-12-18T11:46:17.653Z,938.00
2023-12-18T11:47:14.510Z,939.00
2023-12-18T11:48:13.593Z,940.00
2023-12-18T11:49:13.617Z,945.00
2023-12-18T11:50:13.689Z,952.00
2023-12-18T11:51:13.650Z,968.00
2023-12-18T11:52:13.491Z,977.00
2023-12-18T11:53:13.516Z,980.00
2023-12-18T11:54:13.507Z,987.00
2023-12-18T11:55:13.540Z,994.00
2023-12-18T11:56:13.612Z,987.00
2023-12-18T11:57:13.554Z,1004.00
2023-12-18T11:58:13.514Z,1002.00
2023-12-18T11:59:13.536Z,1029.00
2023-12-18T12:00:13.535Z,1019.00
2023-12-18T12:01:13.692Z,1022.00
2023-12-18T12:02:13.522Z,1035.00
2023-12-18T12:03:13.528Z,1053.00
2023-12-18T12:04:13.664Z,1044.00
2023-12-18T12:05:13.582Z,1049.00
2023-12-18T12:06:13.579Z,1057.00
2023-12-18T12:07:13.530Z,1068.00
2023-12-18T12:08:13.546Z,1063.00
2023-12-18T12:09:13.550Z,1075.00
2023-12-18T12:10:13.722Z,1077.00
2023-12-18T12:11:14.199Z,1085.00
2023-12-18T12:12:13.554Z,1086.00
2023-12-18T12:13:13.555Z,1096.00
2023-12-18T12:14:13.580Z,1116.00
2023-12-18T12:15:15.295Z,1113.00
2023-12-18T12:16:13.605Z,1113.00
2023-12-18T12:17:13.567Z,1112.00
2023-12-18T12:18:13.719Z,1110.00
2023-12-18T12:19:13.713Z,1113.00
2023-12-18T12:20:13.737Z,1105.00
2023-12-18T12:21:14.253Z,1111.00
2023-12-18T12:22:13.886Z,1102.00
2023-12-18T12:23:13.709Z,1098.00
2023-12-18T12:24:14.246Z,1096.00
2023-12-18T12:25:14.204Z,1091.00
2023-12-18T12:26:13.730Z,1105.00